sensor_id;sensor_type;location;lat;lon;timestamp;P1;durP1;ratioP1;P2;durP2;ratioP2
75930;SDS011;64609;47.052;15.462;2022-10-23T16:01:13;5.78;;;2.60;;
75930;SDS011;64609;47.052;15.462;2022-10-23T16:03:39;10.73;;;3.00;;
75930;SDS011;64609;47.052;15.462;2022-10-23T16:06:05;4.95;;;3.10;;
75930;SDS011;64609;47.052;15.462;2022-10-23T16:08:33;8.32;;;3.17;;
75930;SDS011;64609;47.052;15.462;2022-10-23T16:10:59;6.05;;;3.92;;
75930;SDS011;64609;47.052;15.462;2022-10-23T16:13:25;7.07;;;3.88;;
75930;SDS011;64609;47.052;15.462;2022-10-23T16:15:51;15.93;;;3.42;;
75930;SDS011;64609;47.052;15.462;2022-10-23T16:18:18;5.55;;;3.67;;
75930;SDS011;64609;47.052;15.462;2022-10-23T16:20:44;6.78;;;3.33;;
75930;SDS011;64609;47.052;15.462;2022-10-23T16:23:10;9.80;;;3.90;;
75930;SDS011;64609;47.052;15.462;2022-10-23T16:25:36;9.27;;;3.92;;
75930;SDS011;64609;47.052;15.462;2022-10-23T16:28:02;10.23;;;3.92;;
75930;SDS011;64609;47.052;15.462;2022-10-23T16:30:29;8.05;;;4.07;;
75930;SDS011;64609;47.052;15.462;2022-10-23T16:32:54;12.57;;;3.97;;
75930;SDS011;64609;47.052;15.462;2022-10-23T16:35:20;9.55;;;4.70;;
75930;SDS011;64609;47.052;15.462;2022-10-23T16:37:46;5.97;;;4.13;;
75930;SDS011;64609;47.052;15.462;2022-10-23T16:40:12;10.45;;;4.43;;
75930;SDS011;64609;47.052;15.462;2022-10-23T16:42:38;7.70;;;4.60;;
75930;SDS011;64609;47.052;15.462;2022-10-23T16:45:04;11.43;;;4.80;;
75930;SDS011;64609;47.052;15.462;2022-10-23T16:47:31;7.47;;;5.13;;
75930;SDS011;64609;47.052;15.462;2022-10-23T16:49:57;19.02;;;8.15;;
75930;SDS011;64609;47.052;15.462;2022-10-23T16:52:23;10.70;;;6.13;;
75930;SDS011;64609;47.052;15.462;2022-10-23T16:54:49;8.95;;;6.90;;
75930;SDS011;64609;47.052;15.462;2022-10-23T16:57:15;14.05;;;7.68;;
75930;SDS011;64609;47.052;15.462;2022-10-23T16:59:40;19.45;;;8.35;;
75930;SDS011;64609;47.052;15.462;2022-10-23T17:02:07;13.50;;;8.85;;
75930;SDS011;64609;47.052;15.462;2022-10-23T17:04:35;17.60;;;10.40;;
75930;SDS011;64609;47.052;15.462;2022-10-23T17:07:00;21.38;;;12.95;;
75930;SDS011;64609;47.052;15.462;2022-10-23T17:09:26;19.58;;;11.93;;
75930;SDS011;64609;47.052;15.462;2022-10-23T17:11:55;20.73;;;14.85;;
75930;SDS011;64609;47.052;15.462;2022-10-23T17:14:20;25.40;;;15.43;;
75930;SDS011;64609;47.052;15.462;2022-10-23T17:16:50;23.95;;;16.48;;
75930;SDS011;64609;47.052;15.462;2022-10-23T17:19:17;24.90;;;17.42;;
75930;SDS011;64609;47.052;15.462;2022-10-23T17:21:44;32.28;;;18.00;;
75930;SDS011;64609;47.052;15.462;2022-10-23T17:24:10;27.15;;;15.45;;
75930;SDS011;64609;47.052;15.462;2022-10-23T17:26:37;21.35;;;13.50;;
75930;SDS011;64609;47.052;15.462;2022-10-23T17:29:04;21.70;;;13.48;;
75930;SDS011;64609;47.052;15.462;2022-10-23T17:31:35;21.30;;;15.65;;
75930;SDS011;64609;47.052;15.462;2022-10-23T17:34:04;18.60;;;11.88;;
75930;SDS011;64609;47.052;15.462;2022-10-23T17:36:33;15.40;;;9.95;;
75930;SDS011;64609;47.052;15.462;2022-10-23T17:39:05;17.48;;;12.30;;
75930;SDS011;64609;47.052;15.462;2022-10-23T17:41:32;20.05;;;11.20;;
75930;SDS011;64609;47.052;15.462;2022-10-23T17:43:58;16.25;;;9.57;;
75930;SDS011;64609;47.052;15.462;2022-10-23T17:46:25;16.00;;;9.43;;
75930;SDS011;64609;47.052;15.462;2022-10-23T17:48:51;17.48;;;10.02;;
75930;SDS011;64609;47.052;15.462;2022-10-23T17:51:18;13.65;;;10.68;;
75930;SDS011;64609;47.052;15.462;2022-10-23T17:53:46;22.13;;;13.95;;
75930;SDS011;64609;47.052;15.462;2022-10-23T17:56:14;20.35;;;10.60;;
75930;SDS011;64609;47.052;15.462;2022-10-23T17:58:47;15.43;;;10.73;;
75930;SDS011;64609;47.052;15.462;2022-10-23T18:01:15;14.55;;;10.02;;
75930;SDS011;64609;47.052;15.462;2022-10-23T18:03:42;14.10;;;10.35;;
75930;SDS011;64609;47.052;15.462;2022-10-23T18:06:08;19.40;;;9.70;;
75930;SDS011;64609;47.052;15.462;2022-10-23T18:08:36;15.50;;;9.88;;
75930;SDS011;64609;47.052;15.462;2022-10-23T18:11:04;16.50;;;9.55;;
75930;SDS011;64609;47.052;15.462;2022-10-23T18:13:30;20.02;;;9.82;;
75930;SDS011;64609;47.052;15.462;2022-10-23T18:16:04;15.23;;;9.00;;
75930;SDS011;64609;47.052;15.462;2022-10-23T18:18:31;16.90;;;9.48;;
75930;SDS011;64609;47.052;15.462;2022-10-23T18:20:58;22.95;;;9.18;;
75930;SDS011;64609;47.052;15.462;2022-10-23T18:23:25;15.40;;;9.77;;
75930;SDS011;64609;47.052;15.462;2022-10-23T18:25:52;15.95;;;9.00;;
75930;SDS011;64609;47.052;15.462;2022-10-23T18:28:18;12.95;;;8.93;;
75930;SDS011;64609;47.052;15.462;2022-10-23T18:30:44;18.67;;;9.07;;
75930;SDS011;64609;47.052;15.462;2022-10-23T18:33:10;14.10;;;8.63;;
75930;SDS011;64609;47.052;15.462;2022-10-23T18:35:36;15.95;;;7.90;;
75930;SDS011;64609;47.052;15.462;2022-10-23T18:38:02;17.77;;;8.35;;
75930;SDS011;64609;47.052;15.462;2022-10-23T18:40:28;18.95;;;8.88;;
75930;SDS011;64609;47.052;15.462;2022-10-23T18:42:55;10.68;;;7.93;;
75930;SDS011;64609;47.052;15.462;2022-10-23T18:45:20;14.63;;;8.32;;
75930;SDS011;64609;47.052;15.462;2022-10-23T18:47:46;13.88;;;8.90;;
75930;SDS011;64609;47.052;15.462;2022-10-23T18:50:12;16.90;;;9.15;;
75930;SDS011;64609;47.052;15.462;2022-10-23T18:52:38;19.25;;;9.63;;
75930;SDS011;64609;47.052;15.462;2022-10-23T18:55:04;20.55;;;9.50;;
75930;SDS011;64609;47.052;15.462;2022-10-23T18:57:31;14.60;;;9.40;;
75930;SDS011;64609;47.052;15.462;2022-10-23T18:59:57;13.00;;;8.77;;
75930;SDS011;64609;47.052;15.462;2022-10-23T19:02:24;15.25;;;8.32;;
75930;SDS011;64609;47.052;15.462;2022-10-23T19:04:49;15.52;;;9.45;;
75930;SDS011;64609;47.052;15.462;2022-10-23T19:07:15;14.00;;;8.85;;
75930;SDS011;64609;47.052;15.462;2022-10-23T19:09:41;20.35;;;9.23;;
75930;SDS011;64609;47.052;15.462;2022-10-23T19:12:07;17.70;;;9.82;;
75930;SDS011;64609;47.052;15.462;2022-10-23T19:14:34;15.63;;;8.80;;
75930;SDS011;64609;47.052;15.462;2022-10-23T19:17:03;15.20;;;8.35;;
75930;SDS011;64609;47.052;15.462;2022-10-23T19:19:43;13.30;;;8.57;;
75930;SDS011;64609;47.052;15.462;2022-10-23T19:22:15;14.52;;;8.82;;
75930;SDS011;64609;47.052;15.462;2022-10-23T19:24:43;15.60;;;9.20;;
75930;SDS011;64609;47.052;15.462;2022-10-23T19:27:12;13.60;;;8.50;;
75930;SDS011;64609;47.052;15.462;2022-10-23T19:29:39;19.83;;;8.65;;
75930;SDS011;64609;47.052;15.462;2022-10-23T19:32:08;14.80;;;9.50;;
75930;SDS011;64609;47.052;15.462;2022-10-23T19:34:34;16.75;;;8.95;;
75930;SDS011;64609;47.052;15.462;2022-10-23T19:37:00;13.20;;;8.07;;
75930;SDS011;64609;47.052;15.462;2022-10-23T19:39:25;13.30;;;8.65;;
75930;SDS011;64609;47.052;15.462;2022-10-23T19:41:51;13.27;;;7.78;;
75930;SDS011;64609;47.052;15.462;2022-10-23T19:44:18;13.45;;;7.75;;
75930;SDS011;64609;47.052;15.462;2022-10-23T19:46:44;14.98;;;8.50;;
75930;SDS011;64609;47.052;15.462;2022-10-23T19:49:10;12.80;;;7.50;;
75930;SDS011;64609;47.052;15.462;2022-10-23T19:51:36;15.02;;;8.10;;
75930;SDS011;64609;47.052;15.462;2022-10-23T19:54:01;11.07;;;7.90;;
75930;SDS011;64609;47.052;15.462;2022-10-23T19:56:27;13.63;;;7.97;;
75930;SDS011;64609;47.052;15.462;2022-10-23T19:58:53;10.63;;;7.82;;
75930;SDS011;64609;47.052;15.462;2022-10-23T20:01:20;15.68;;;7.60;;
75930;SDS011;64609;47.052;15.462;2022-10-23T20:03:48;16.63;;;8.18;;
75930;SDS011;64609;47.052;15.462;2022-10-23T20:06:16;12.48;;;8.05;;
75930;SDS011;64609;47.052;15.462;2022-10-23T20:08:43;16.27;;;7.72;;
75930;SDS011;64609;47.052;15.462;2022-10-23T20:11:12;15.77;;;8.70;;
75930;SDS011;64609;47.052;15.462;2022-10-23T20:13:47;11.38;;;8.65;;
75930;SDS011;64609;47.052;15.462;2022-10-23T20:16:19;12.23;;;8.13;;
75930;SDS011;64609;47.052;15.462;2022-10-23T20:18:49;12.32;;;8.07;;
75930;SDS011;64609;47.052;15.462;2022-10-23T20:21:16;16.17;;;8.93;;
75930;SDS011;64609;47.052;15.462;2022-10-23T20:23:42;11.68;;;8.30;;
75930;SDS011;64609;47.052;15.462;2022-10-23T20:26:10;13.40;;;8.57;;
75930;SDS011;64609;47.052;15.462;2022-10-23T20:28:40;14.32;;;8.48;;
75930;SDS011;64609;47.052;15.462;2022-10-23T20:31:06;14.00;;;8.20;;
75930;SDS011;64609;47.052;15.462;2022-10-23T20:33:34;11.55;;;7.30;;
75930;SDS011;64609;47.052;15.462;2022-10-23T20:36:00;17.13;;;8.60;;
75930;SDS011;64609;47.052;15.462;2022-10-23T20:38:27;12.95;;;8.77;;
75930;SDS011;64609;47.052;15.462;2022-10-23T20:40:56;16.15;;;8.27;;
75930;SDS011;64609;47.052;15.462;2022-10-23T20:43:24;12.80;;;7.55;;
75930;SDS011;64609;47.052;15.462;2022-10-23T20:45:50;10.60;;;6.82;;
75930;SDS011;64609;47.052;15.462;2022-10-23T20:48:16;15.27;;;7.00;;
75930;SDS011;64609;47.052;15.462;2022-10-23T20:50:42;9.35;;;6.70;;
75930;SDS011;64609;47.052;15.462;2022-10-23T20:53:07;9.02;;;6.45;;
75930;SDS011;64609;47.052;15.462;2022-10-23T20:55:33;10.85;;;6.82;;
75930;SDS011;64609;47.052;15.462;2022-10-23T20:57:58;12.02;;;6.75;;
75930;SDS011;64609;47.052;15.462;2022-10-23T21:00:24;10.38;;;6.43;;
75930;SDS011;64609;47.052;15.462;2022-10-23T21:02:50;10.48;;;6.20;;
75930;SDS011;64609;47.052;15.462;2022-10-23T21:05:16;12.30;;;6.15;;
75930;SDS011;64609;47.052;15.462;2022-10-23T21:07:42;10.00;;;6.20;;
75930;SDS011;64609;47.052;15.462;2022-10-23T21:10:07;9.88;;;6.10;;
75930;SDS011;64609;47.052;15.462;2022-10-23T21:12:33;8.75;;;6.40;;
75930;SDS011;64609;47.052;15.462;2022-10-23T21:14:59;8.40;;;6.13;;
75930;SDS011;64609;47.052;15.462;2022-10-23T21:17:24;14.65;;;6.03;;
75930;SDS011;64609;47.052;15.462;2022-10-23T21:19:50;14.52;;;6.28;;
75930;SDS011;64609;47.052;15.462;2022-10-23T21:22:15;10.32;;;5.68;;
75930;SDS011;64609;47.052;15.462;2022-10-23T21:24:41;11.45;;;5.88;;
75930;SDS011;64609;47.052;15.462;2022-10-23T21:27:07;12.13;;;5.63;;
75930;SDS011;64609;47.052;15.462;2022-10-23T21:29:32;8.57;;;5.28;;
75930;SDS011;64609;47.052;15.462;2022-10-23T21:31:58;9.00;;;5.80;;
75930;SDS011;64609;47.052;15.462;2022-10-23T21:34:25;13.15;;;4.93;;
75930;SDS011;64609;47.052;15.462;2022-10-23T21:36:52;10.35;;;5.40;;
75930;SDS011;64609;47.052;15.462;2022-10-23T21:39:18;11.60;;;5.13;;
75930;SDS011;64609;47.052;15.462;2022-10-23T21:41:43;7.60;;;5.57;;
75930;SDS011;64609;47.052;15.462;2022-10-23T21:44:09;8.73;;;4.97;;
75930;SDS011;64609;47.052;15.462;2022-10-23T21:46:37;9.95;;;6.00;;
75930;SDS011;64609;47.052;15.462;2022-10-23T21:49:03;9.50;;;6.07;;
75930;SDS011;64609;47.052;15.462;2022-10-23T21:51:30;13.48;;;5.47;;
75930;SDS011;64609;47.052;15.462;2022-10-23T21:53:59;11.95;;;5.97;;
75930;SDS011;64609;47.052;15.462;2022-10-23T21:56:33;9.00;;;5.82;;
75930;SDS011;64609;47.052;15.462;2022-10-23T21:59:11;9.05;;;5.70;;
75930;SDS011;64609;47.052;15.462;2022-10-23T22:01:39;11.13;;;5.90;;
75930;SDS011;64609;47.052;15.462;2022-10-23T22:04:07;12.45;;;5.50;;
75930;SDS011;64609;47.052;15.462;2022-10-23T22:06:34;11.07;;;6.05;;
75930;SDS011;64609;47.052;15.462;2022-10-23T22:09:00;10.80;;;5.45;;
75930;SDS011;64609;47.052;15.462;2022-10-23T22:11:25;13.15;;;6.20;;
75930;SDS011;64609;47.052;15.462;2022-10-23T22:13:52;10.05;;;5.88;;
75930;SDS011;64609;47.052;15.462;2022-10-23T22:16:17;15.20;;;6.88;;
75930;SDS011;64609;47.052;15.462;2022-10-23T22:18:44;9.85;;;6.10;;
75930;SDS011;64609;47.052;15.462;2022-10-23T22:21:14;13.68;;;6.43;;
75930;SDS011;64609;47.052;15.462;2022-10-23T22:23:42;9.90;;;6.03;;
75930;SDS011;64609;47.052;15.462;2022-10-23T22:26:30;13.88;;;6.15;;
75930;SDS011;64609;47.052;15.462;2022-10-23T22:28:57;11.60;;;6.43;;
75930;SDS011;64609;47.052;15.462;2022-10-23T22:31:25;17.05;;;6.20;;
75930;SDS011;64609;47.052;15.462;2022-10-23T22:33:52;9.48;;;5.38;;
75930;SDS011;64609;47.052;15.462;2022-10-23T22:36:19;9.00;;;5.72;;
75930;SDS011;64609;47.052;15.462;2022-10-23T22:38:45;9.50;;;5.68;;
75930;SDS011;64609;47.052;15.462;2022-10-23T22:41:11;12.13;;;5.72;;
75930;SDS011;64609;47.052;15.462;2022-10-23T22:43:37;10.57;;;5.18;;
75930;SDS011;64609;47.052;15.462;2022-10-23T22:46:03;9.07;;;5.38;;
75930;SDS011;64609;47.052;15.462;2022-10-23T22:48:30;10.75;;;4.93;;
75930;SDS011;64609;47.052;15.462;2022-10-23T22:50:56;8.82;;;5.50;;
75930;SDS011;64609;47.052;15.462;2022-10-23T22:53:22;11.50;;;5.55;;
75930;SDS011;64609;47.052;15.462;2022-10-23T22:55:47;12.38;;;5.65;;
75930;SDS011;64609;47.052;15.462;2022-10-23T22:58:13;9.00;;;5.65;;
75930;SDS011;64609;47.052;15.462;2022-10-23T23:00:39;12.15;;;5.60;;
75930;SDS011;64609;47.052;15.462;2022-10-23T23:03:05;10.77;;;5.20;;
75930;SDS011;64609;47.052;15.462;2022-10-23T23:05:31;13.07;;;5.55;;
75930;SDS011;64609;47.052;15.462;2022-10-23T23:07:57;8.90;;;5.30;;
75930;SDS011;64609;47.052;15.462;2022-10-23T23:10:23;10.27;;;5.95;;
75930;SDS011;64609;47.052;15.462;2022-10-23T23:12:49;8.93;;;6.05;;
75930;SDS011;64609;47.052;15.462;2022-10-23T23:15:15;7.63;;;5.63;;
75930;SDS011;64609;47.052;15.462;2022-10-23T23:17:41;8.95;;;6.05;;
75930;SDS011;64609;47.052;15.462;2022-10-23T23:20:07;13.82;;;5.82;;
75930;SDS011;64609;47.052;15.462;2022-10-23T23:22:33;8.65;;;5.55;;
75930;SDS011;64609;47.052;15.462;2022-10-23T23:24:59;8.88;;;5.50;;
75930;SDS011;64609;47.052;15.462;2022-10-23T23:27:24;12.60;;;5.38;;
75930;SDS011;64609;47.052;15.462;2022-10-23T23:29:51;12.32;;;6.05;;
75930;SDS011;64609;47.052;15.462;2022-10-23T23:32:20;8.75;;;5.50;;
75930;SDS011;64609;47.052;15.462;2022-10-23T23:34:45;11.43;;;5.75;;
75930;SDS011;64609;47.052;15.462;2022-10-23T23:37:11;11.35;;;5.90;;
75930;SDS011;64609;47.052;15.462;2022-10-23T23:39:36;11.85;;;5.82;;
75930;SDS011;64609;47.052;15.462;2022-10-23T23:42:02;9.27;;;5.95;;
75930;SDS011;64609;47.052;15.462;2022-10-23T23:44:28;11.55;;;5.05;;
75930;SDS011;64609;47.052;15.462;2022-10-23T23:46:53;9.05;;;5.80;;
75930;SDS011;64609;47.052;15.462;2022-10-23T23:49:20;9.73;;;5.80;;
75930;SDS011;64609;47.052;15.462;2022-10-23T23:51:45;12.95;;;5.95;;
75930;SDS011;64609;47.052;15.462;2022-10-23T23:54:11;13.32;;;5.95;;
75930;SDS011;64609;47.052;15.462;2022-10-23T23:56:37;8.82;;;5.78;;
75930;SDS011;64609;47.052;15.462;2022-10-23T23:59:02;10.75;;;5.47;;
